Time;durP1;ratioP1;P1;durP2;ratioP2;P2;SDS_P1;SDS_P2;PMS_P1;PMS_P2;Temp;Humidity;BMP_temperature;BMP_pressure;BME280_temperature;BME280_humidity;BME280_pressure;Samples;Min_cycle;Max_cycle;Signal;HPM_P1;HPM_P2
2021/11/25 00:01:54;;;;;;;84.87;45.87;;;102.60;2227.20;;;;;;5073042;28;20020;-78
2021/11/25 00:04:20;;;;;;;87.10;46.13;;;102.60;2227.20;;;;;;5072897;28;20111;-78
2021/11/25 00:06:46;;;;;;;96.73;51.27;;;102.60;2227.20;;;;;;5073302;28;20043;-77
2021/11/25 00:09:11;;;;;;;90.43;48.03;;;102.60;2227.20;;;;;;5080162;28;20066;-78
2021/11/25 00:11:37;;;;;;;103.80;52.17;;;102.60;2227.20;;;;;;5089047;28;20032;-77
2021/11/25 00:14:04;;;;;;;88.73;47.93;;;102.60;2227.20;;;;;;5088452;28;20562;-77
2021/11/25 00:16:30;;;;;;;90.67;48.10;;;102.70;2227.20;;;;;;5089901;28;20032;-78
2021/11/25 00:18:56;;;;;;;95.27;47.10;;;102.60;2227.20;;;;;;5108246;28;20016;-77
2021/11/25 00:21:22;;;;;;;106.17;55.27;;;102.60;2227.20;;;;;;5106319;28;20053;-78
2021/11/25 00:23:48;;;;;;;103.23;53.03;;;102.60;2227.20;;;;;;5103658;28;20024;-77
2021/11/25 00:26:14;;;;;;;104.80;54.07;;;102.60;2227.20;;;;;;5098570;28;20388;-79
2021/11/25 00:28:40;;;;;;;109.10;61.80;;;102.60;2227.20;;;;;;5065268;28;20037;-78
2021/11/25 00:31:06;;;;;;;111.20;60.57;;;102.50;2227.20;;;;;;5056524;28;20029;-78
2021/11/25 00:33:32;;;;;;;130.43;71.33;;;102.50;2227.20;;;;;;5056190;28;20036;-78
2021/11/25 00:35:58;;;;;;;125.63;68.07;;;102.50;2227.20;;;;;;5056722;28;20109;-79
2021/11/25 00:38:24;;;;;;;116.10;60.83;;;102.50;2227.20;;;;;;5058682;28;20425;-79
2021/11/25 00:40:50;;;;;;;121.50;61.50;;;102.50;2227.20;;;;;;5057899;28;20025;-76
2021/11/25 00:43:16;;;;;;;112.70;62.00;;;102.50;2227.20;;;;;;5056665;28;20024;-78
2021/11/25 00:45:42;;;;;;;121.63;62.67;;;102.50;2227.20;;;;;;5061720;28;20031;-78
2021/11/25 00:48:09;;;;;;;133.37;64.60;;;102.50;2227.20;;;;;;5076152;28;20036;-78
2021/11/25 00:50:35;;;;;;;126.43;66.83;;;102.50;2227.20;;;;;;5078295;28;20021;-77
2021/11/25 00:53:01;;;;;;;124.23;68.10;;;102.50;2227.20;;;;;;5079174;28;20028;-77
2021/11/25 00:55:27;;;;;;;119.40;65.13;;;102.40;2227.20;;;;;;5087266;28;20032;-77
2021/11/25 00:57:53;;;;;;;152.40;83.37;;;102.40;2227.20;;;;;;5089569;28;20468;-78
2021/11/25 01:00:21;;;;;;;138.17;76.60;;;102.40;2227.20;;;;;;5089940;28;20068;-76
2021/11/25 01:02:48;;;;;;;144.70;75.03;;;102.40;2227.20;;;;;;5075727;28;20059;-78
2021/11/25 01:05:16;;;;;;;141.70;74.90;;;102.70;2227.20;;;;;;5073327;28;20081;-78
2021/11/25 01:07:43;;;;;;;137.83;77.07;;;102.40;2227.20;;;;;;5055649;28;20040;-78
2021/11/25 01:10:10;;;;;;;112.83;61.27;;;102.40;2227.20;;;;;;5077477;28;20024;-78
2021/11/25 01:12:37;;;;;;;107.07;57.57;;;102.40;2227.20;;;;;;5092496;28;20029;-78
2021/11/25 01:15:05;;;;;;;100.50;54.50;;;102.40;2227.20;;;;;;5091759;28;20064;-78
2021/11/25 01:17:31;;;;;;;99.27;55.13;;;77.70;2227.20;;;;;;5073293;28;20029;-78
2021/11/25 01:19:57;;;;;;;89.00;51.23;;;77.70;2227.20;;;;;;5070677;28;20066;-76
2021/11/25 01:22:22;;;;;;;86.87;46.30;;;77.70;2227.20;;;;;;5071231;28;20032;-78
2021/11/25 01:24:48;;;;;;;86.60;44.83;;;77.70;2227.20;;;;;;5069821;28;20025;-77
2021/11/25 01:27:16;;;;;;;82.40;45.73;;;77.70;2227.20;;;;;;5079244;28;20104;-77
2021/11/25 01:29:42;;;;;;;86.13;46.83;;;77.70;2227.20;;;;;;5075723;28;20469;-77
2021/11/25 01:32:08;;;;;;;91.70;50.00;;;77.70;2227.20;;;;;;5075408;28;20052;-77
2021/11/25 01:34:34;;;;;;;95.73;49.93;;;77.70;2227.20;;;;;;5078876;28;20457;-77
2021/11/25 01:37:00;;;;;;;87.40;49.93;;;77.70;2227.20;;;;;;5082015;28;20025;-77
2021/11/25 01:39:26;;;;;;;86.63;44.87;;;77.70;2227.20;;;;;;5076633;28;20159;-77
2021/11/25 01:41:51;;;;;;;80.70;45.67;;;77.60;2227.20;;;;;;5061759;28;20021;-77
2021/11/25 01:44:17;;;;;;;95.37;48.63;;;77.60;2227.20;;;;;;5055224;28;20397;-76
2021/11/25 01:46:44;;;;;;;95.27;46.80;;;77.60;2227.20;;;;;;5056291;28;20469;-77
2021/11/25 01:49:10;;;;;;;92.83;51.93;;;77.60;2227.20;;;;;;5054761;28;20119;-76
2021/11/25 01:51:36;;;;;;;106.53;54.80;;;77.60;2227.20;;;;;;5054869;28;20021;-77
2021/11/25 01:54:02;;;;;;;98.00;52.87;;;77.60;2227.20;;;;;;5055416;28;20025;-76
2021/11/25 01:56:28;;;;;;;109.03;54.13;;;77.60;2227.20;;;;;;5055912;28;20017;-76
2021/11/25 01:58:55;;;;;;;99.93;55.13;;;77.60;2227.20;;;;;;5055808;28;20414;-77
2021/11/25 02:01:23;;;;;;;110.47;55.20;;;77.60;2227.20;;;;;;5054255;28;20021;-77
2021/11/25 02:03:50;;;;;;;110.17;59.80;;;77.60;2227.20;;;;;;5055612;28;20430;-77
2021/11/25 02:06:17;;;;;;;104.27;51.13;;;77.60;2227.20;;;;;;5055791;28;20017;-77
2021/11/25 02:08:43;;;;;;;97.00;48.10;;;77.60;2227.20;;;;;;5055502;28;20060;-77
2021/11/25 02:11:10;;;;;;;111.00;54.73;;;77.50;2227.20;;;;;;5056830;28;20437;-77
2021/11/25 02:13:36;;;;;;;94.10;52.13;;;77.50;2227.20;;;;;;5054816;28;20473;-77
2021/11/25 02:16:02;;;;;;;116.30;58.60;;;77.50;2227.20;;;;;;5055786;28;20017;-77
2021/11/25 02:18:28;;;;;;;110.30;53.50;;;77.50;2227.20;;;;;;5056404;28;20052;-75
2021/11/25 02:20:57;;;;;;;129.60;70.60;;;77.50;2227.20;;;;;;5055003;28;20079;-77
2021/11/25 02:23:23;;;;;;;144.90;72.60;;;77.40;2227.20;;;;;;5056248;28;20045;-77
2021/11/25 02:25:51;;;;;;;119.33;66.33;;;77.40;2227.20;;;;;;5056088;28;20024;-77
2021/11/25 02:28:22;;;;;;;124.40;65.37;;;77.40;2227.20;;;;;;5055660;28;20032;-77
2021/11/25 02:30:49;;;;;;;113.47;62.50;;;77.40;2227.20;;;;;;5058054;28;20147;-76
2021/11/25 02:33:15;;;;;;;122.10;63.67;;;77.40;2227.20;;;;;;5057903;28;20391;-77
2021/11/25 02:35:43;;;;;;;133.70;67.87;;;77.40;2227.20;;;;;;5056105;28;20464;-77
2021/11/25 02:38:10;;;;;;;131.23;68.63;;;77.40;2227.20;;;;;;5057043;28;20040;-76
2021/11/25 02:40:41;;;;;;;122.63;66.03;;;77.40;2227.20;;;;;;5056537;28;20084;-78
2021/11/25 02:43:13;;;;;;;145.33;75.47;;;77.40;2227.20;;;;;;5055375;28;20037;-77
2021/11/25 02:45:51;;;;;;;139.40;72.50;;;77.40;2227.20;;;;;;5056194;28;20033;-77
2021/11/25 02:48:19;;;;;;;125.97;67.87;;;77.40;2227.20;;;;;;5056249;28;20037;-76
2021/11/25 02:50:47;;;;;;;124.93;62.63;;;77.40;2227.20;;;;;;5055201;28;20057;-77
2021/11/25 02:53:17;;;;;;;125.37;66.40;;;77.40;2227.20;;;;;;5053480;28;20067;-76
2021/11/25 02:55:43;;;;;;;100.30;54.27;;;77.40;2227.20;;;;;;5053668;28;20112;-76
2021/11/25 02:58:08;;;;;;;93.43;47.83;;;77.40;2227.20;;;;;;5053469;28;20052;-76
2021/11/25 03:00:38;;;;;;;74.30;39.23;;;77.40;2227.20;;;;;;5057656;28;20481;-77
2021/11/25 03:03:08;;;;;;;87.80;40.87;;;77.30;2227.20;;;;;;5055535;28;20082;-78
2021/11/25 03:05:35;;;;;;;81.33;42.33;;;77.30;2227.20;;;;;;5054671;28;20147;-77
2021/11/25 03:08:02;;;;;;;84.33;43.33;;;77.30;2227.20;;;;;;5055432;28;20559;-79
2021/11/25 03:10:33;;;;;;;74.80;41.47;;;77.30;2227.20;;;;;;5054664;28;20480;-77
2021/11/25 03:12:59;;;;;;;67.33;36.40;;;77.30;2227.20;;;;;;5054643;28;20070;-78
2021/11/25 03:15:30;;;;;;;78.07;41.77;;;77.30;2227.20;;;;;;5055135;28;20394;-77
2021/11/25 03:17:55;;;;;;;80.67;41.43;;;77.30;2227.20;;;;;;5054036;28;20029;-78
2021/11/25 03:20:22;;;;;;;79.83;40.47;;;77.30;2227.20;;;;;;5055028;28;20150;-78
2021/11/25 03:22:47;;;;;;;75.20;40.00;;;77.30;2227.20;;;;;;5053630;28;20151;-78
2021/11/25 03:25:13;;;;;;;79.03;43.53;;;77.30;2227.20;;;;;;5054809;28;20029;-78
2021/11/25 03:27:39;;;;;;;81.03;41.23;;;77.20;2227.20;;;;;;5053359;28;20037;-78
2021/11/25 03:30:05;;;;;;;88.10;45.23;;;77.20;2227.20;;;;;;5055047;28;20067;-78
2021/11/25 03:32:31;;;;;;;86.03;46.87;;;77.20;2227.20;;;;;;5054414;28;20055;-77
2021/11/25 03:34:57;;;;;;;91.83;50.57;;;77.20;2227.20;;;;;;5053021;28;20062;-77
2021/11/25 03:37:23;;;;;;;95.50;55.07;;;77.20;2227.20;;;;;;5053925;28;20048;-77
2021/11/25 03:39:49;;;;;;;86.93;48.23;;;77.20;2227.20;;;;;;5054325;28;20021;-77
2021/11/25 03:42:15;;;;;;;83.70;40.87;;;77.20;2227.20;;;;;;5054474;28;20365;-77
2021/11/25 03:44:44;;;;;;;80.60;44.03;;;77.20;2227.20;;;;;;5053047;28;20037;-77
2021/11/25 03:47:10;;;;;;;87.30;48.03;;;77.20;2227.20;;;;;;5053914;28;20121;-77
2021/11/25 03:49:36;;;;;;;84.93;44.50;;;77.20;2227.20;;;;;;5054126;28;20032;-79
2021/11/25 03:52:01;;;;;;;83.30;41.00;;;77.20;2227.20;;;;;;5053945;28;20104;-79
2021/11/25 03:54:27;;;;;;;82.87;43.83;;;77.20;2227.20;;;;;;5055359;28;20047;-78
2021/11/25 03:56:53;;;;;;;87.70;46.37;;;77.20;2227.20;;;;;;5067416;28;20028;-77
2021/11/25 03:59:19;;;;;;;84.23;45.00;;;77.20;2227.20;;;;;;5076456;28;20100;-79
2021/11/25 04:01:44;;;;;;;83.33;44.33;;;77.20;2227.20;;;;;;5073299;28;20120;-78
2021/11/25 04:04:10;;;;;;;88.23;47.47;;;77.20;2227.20;;;;;;5073787;28;20052;-79
2021/11/25 04:06:37;;;;;;;81.90;45.07;;;77.20;2227.20;;;;;;5074622;28;20099;-79
2021/11/25 04:09:03;;;;;;;102.13;55.20;;;77.10;2227.20;;;;;;5073186;28;20556;-79
2021/11/25 04:11:29;;;;;;;101.73;53.27;;;77.20;2227.20;;;;;;5056521;28;20537;-79
2021/11/25 04:13:56;;;;;;;107.63;51.63;;;77.10;2227.20;;;;;;5073582;28;20045;-78
2021/11/25 04:16:22;;;;;;;99.70;55.57;;;77.10;2227.20;;;;;;5073092;28;20102;-79
2021/11/25 04:18:47;;;;;;;101.30;53.07;;;77.10;2227.20;;;;;;5071692;28;20472;-79
2021/11/25 04:21:13;;;;;;;110.10;52.63;;;77.10;2227.20;;;;;;5069106;28;20506;-79
2021/11/25 04:23:39;;;;;;;100.73;51.83;;;77.10;2227.20;;;;;;5071576;28;20073;-78
2021/11/25 04:26:05;;;;;;;103.53;54.23;;;77.10;2227.20;;;;;;5073272;28;20016;-79
2021/11/25 04:28:30;;;;;;;97.37;47.97;;;77.00;2227.20;;;;;;5071647;28;20068;-79
2021/11/25 04:36:25;;;;;;;99.50;50.23;;;77.00;2227.20;;;;;;5074240;28;20107;-78
2021/11/25 04:38:50;;;;;;;87.03;47.30;;;77.00;2227.20;;;;;;5087917;28;20055;-78
2021/11/25 04:41:16;;;;;;;97.13;48.27;;;77.00;2227.20;;;;;;5075060;28;20031;-78
2021/11/25 04:43:42;;;;;;;100.27;47.13;;;77.00;2227.20;;;;;;5076313;28;20033;-79
2021/11/25 04:46:08;;;;;;;93.10;45.70;;;76.90;2227.20;;;;;;5072506;28;20068;-78
2021/11/25 04:48:35;;;;;;;109.93;52.10;;;77.00;2227.20;;;;;;5071428;28;20453;-78
2021/11/25 04:51:00;;;;;;;119.30;56.03;;;77.00;2227.20;;;;;;5071693;28;20047;-78
2021/11/25 04:53:26;;;;;;;124.07;64.87;;;77.00;2227.20;;;;;;5072940;28;20033;-78
2021/11/25 04:55:53;;;;;;;113.97;59.30;;;76.90;2227.20;;;;;;5073156;28;20040;-79
2021/11/25 04:58:19;;;;;;;109.67;55.23;;;77.00;2227.20;;;;;;5076638;28;20028;-78
2021/11/25 05:00:46;;;;;;;100.77;51.33;;;77.00;2227.20;;;;;;5074219;28;20056;-77
2021/11/25 05:03:12;;;;;;;103.23;52.30;;;77.00;2227.20;;;;;;5074375;28;20035;-78
2021/11/25 05:05:38;;;;;;;107.03;54.90;;;76.90;2227.20;;;;;;5082129;28;20027;-79
2021/11/25 05:08:04;;;;;;;96.67;49.97;;;76.90;2227.20;;;;;;5087862;28;20086;-77
2021/11/25 05:10:30;;;;;;;83.97;47.70;;;76.90;2227.20;;;;;;5062745;28;20025;-78
2021/11/25 05:12:56;;;;;;;86.93;44.63;;;76.90;2227.20;;;;;;5057406;28;20535;-77
2021/11/25 05:15:22;;;;;;;70.60;37.67;;;76.90;2227.20;;;;;;5074996;28;20049;-78
2021/11/25 05:17:48;;;;;;;69.67;36.63;;;76.90;2227.20;;;;;;5074648;28;20036;-77
2021/11/25 05:20:15;;;;;;;83.27;43.50;;;76.90;2227.20;;;;;;5076309;28;20020;-77
2021/11/25 05:22:41;;;;;;;87.03;45.33;;;76.90;2227.20;;;;;;5078646;28;20388;-78
2021/11/25 05:25:08;;;;;;;91.83;44.53;;;76.90;2227.20;;;;;;5104915;28;20410;-77
2021/11/25 05:27:34;;;;;;;81.50;38.77;;;76.90;2227.20;;;;;;5085491;28;20173;-77
2021/11/25 05:30:01;;;;;;;90.20;47.60;;;76.90;2227.20;;;;;;5076017;28;20032;-77
2021/11/25 05:32:27;;;;;;;79.87;42.43;;;76.90;2227.20;;;;;;5084545;28;20051;-77
2021/11/25 05:34:52;;;;;;;71.13;37.70;;;76.90;2227.20;;;;;;5072248;28;20480;-77
2021/11/25 05:37:18;;;;;;;68.43;38.73;;;76.90;2227.20;;;;;;5084333;28;20024;-77
2021/11/25 05:39:44;;;;;;;82.27;44.03;;;76.90;2227.20;;;;;;5075684;28;20021;-77
2021/11/25 05:42:10;;;;;;;68.47;36.43;;;76.90;2227.20;;;;;;5074268;28;20032;-78
2021/11/25 05:44:37;;;;;;;149.57;73.13;;;76.90;2227.20;;;;;;5075358;28;20025;-77
2021/11/25 05:47:03;;;;;;;132.30;71.80;;;76.90;2227.20;;;;;;5075461;28;20025;-77
2021/11/25 05:49:30;;;;;;;143.67;78.00;;;76.80;2227.20;;;;;;5073499;28;20031;-76
2021/11/25 05:51:55;;;;;;;147.47;81.77;;;76.80;2227.20;;;;;;5075603;28;20024;-78
2021/11/25 05:54:21;;;;;;;90.03;49.30;;;76.80;2227.20;;;;;;5075640;28;20020;-77
2021/11/25 05:56:47;;;;;;;107.03;52.53;;;76.80;2227.20;;;;;;5075986;28;20029;-78
2021/11/25 05:59:13;;;;;;;90.93;53.07;;;76.80;2227.20;;;;;;5074053;28;20502;-78
2021/11/25 06:01:39;;;;;;;107.23;68.60;;;76.80;2227.20;;;;;;5075417;28;20024;-78
2021/11/25 06:04:04;;;;;;;105.33;59.67;;;76.80;2227.20;;;;;;5074103;28;20025;-78
2021/11/25 06:06:30;;;;;;;94.93;52.63;;;76.80;2227.20;;;;;;5074655;28;20146;-79
2021/11/25 06:08:56;;;;;;;96.13;53.00;;;76.80;2227.20;;;;;;5073886;28;20045;-76
2021/11/25 06:11:22;;;;;;;109.50;59.43;;;76.80;2227.20;;;;;;5075123;28;20103;-79
2021/11/25 06:13:48;;;;;;;133.57;72.40;;;76.80;2227.20;;;;;;5073618;28;20033;-77
2021/11/25 06:16:14;;;;;;;138.30;73.00;;;76.80;2227.20;;;;;;5075238;28;20028;-77
2021/11/25 06:18:40;;;;;;;142.70;72.70;;;76.90;2227.20;;;;;;5075518;28;20052;-76
2021/11/25 06:21:06;;;;;;;137.90;67.50;;;76.90;2227.20;;;;;;5075071;28;20106;-77
2021/11/25 06:23:33;;;;;;;120.80;60.57;;;76.90;2227.20;;;;;;5075185;28;20032;-77
2021/11/25 06:25:58;;;;;;;108.67;59.03;;;76.90;2227.20;;;;;;5073646;28;20021;-77
2021/11/25 06:28:24;;;;;;;105.00;52.83;;;76.90;2227.20;;;;;;5074508;28;20526;-77
2021/11/25 06:30:50;;;;;;;96.53;48.40;;;76.80;2227.20;;;;;;5073731;28;20024;-75
2021/11/25 06:33:17;;;;;;;82.37;44.03;;;76.90;2227.20;;;;;;5073539;28;20025;-75
2021/11/25 06:35:42;;;;;;;89.63;46.43;;;76.90;2227.20;;;;;;5073727;28;20024;-76
2021/11/25 06:38:08;;;;;;;96.47;48.30;;;76.90;2227.20;;;;;;5073791;28;20024;-78
2021/11/25 06:40:35;;;;;;;110.50;55.07;;;77.00;2227.20;;;;;;5075201;28;20025;-78
2021/11/25 06:43:05;;;;;;;96.30;48.90;;;77.00;2227.20;;;;;;5075057;28;20549;-78
2021/11/25 06:45:31;;;;;;;97.03;51.33;;;77.00;2227.20;;;;;;5074896;28;20551;-78
2021/11/25 06:47:56;;;;;;;83.20;45.63;;;77.10;2227.20;;;;;;5074475;28;20119;-76
2021/11/25 06:50:24;;;;;;;90.30;44.93;;;77.10;2227.20;;;;;;5074459;28;20017;-77
2021/11/25 06:52:50;;;;;;;89.50;47.57;;;77.20;2227.20;;;;;;5074538;28;20027;-77
2021/11/25 06:55:18;;;;;;;92.50;47.87;;;77.20;2227.20;;;;;;5074318;28;20468;-77
2021/11/25 06:57:50;;;;;;;90.93;46.83;;;77.30;2227.20;;;;;;5074675;28;20031;-78
2021/11/25 07:00:18;;;;;;;80.90;46.78;;;77.30;2227.20;;;;;;5074664;28;20012;-77
2021/11/25 07:02:44;;;;;;;77.30;42.17;;;77.40;2227.20;;;;;;5074442;28;20071;-77
2021/11/25 07:05:11;;;;;;;81.20;43.93;;;77.50;2227.20;;;;;;5074137;28;20048;-79
2021/11/25 07:07:38;;;;;;;84.80;46.23;;;77.60;2227.20;;;;;;5074275;28;20040;-75
2021/11/25 07:10:07;;;;;;;80.40;40.93;;;77.70;2227.20;;;;;;5073612;28;20047;-74
2021/11/25 07:12:34;;;;;;;72.13;39.87;;;77.70;2227.20;;;;;;5062727;28;20035;-74
2021/11/25 07:15:00;;;;;;;74.87;41.50;;;102.40;2227.20;;;;;;5064950;28;20049;-73
2021/11/25 07:17:25;;;;;;;77.73;44.57;;;102.50;2227.20;;;;;;5073309;28;20025;-73
2021/11/25 07:19:51;;;;;;;81.03;46.23;;;102.60;2227.20;;;;;;5073167;28;20451;-74
2021/11/25 07:22:17;;;;;;;94.30;50.50;;;102.70;2227.20;;;;;;5067725;28;20036;-75
2021/11/25 07:24:43;;;;;;;69.63;38.17;;;102.80;2227.20;;;;;;5061766;28;20040;-74
2021/11/25 07:27:09;;;;;;;74.97;37.73;;;102.90;2227.20;;;;;;5070714;28;20028;-76
2021/11/25 07:29:37;;;;;;;70.67;38.23;;;102.90;2227.20;;;;;;5072947;28;20056;-75
2021/11/25 07:32:03;;;;;;;77.60;43.37;;;103.00;2227.20;;;;;;5070812;28;21463;-75
2021/11/25 07:34:29;;;;;;;70.90;39.20;;;103.10;2227.20;;;;;;5072966;28;20541;-74
2021/11/25 07:36:55;;;;;;;65.10;39.40;;;103.20;2227.20;;;;;;5065762;28;20096;-74
2021/11/25 07:39:21;;;;;;;83.10;41.97;;;103.30;2227.20;;;;;;5063168;28;20031;-74
2021/11/25 07:41:46;;;;;;;72.63;37.90;;;103.30;2227.20;;;;;;5070281;28;20620;-76
2021/11/25 07:44:12;;;;;;;63.60;38.03;;;103.30;2227.20;;;;;;5073070;28;20526;-75
2021/11/25 07:46:38;;;;;;;85.25;46.10;;;128.00;2252.80;;;;;;5073005;28;20028;-75
2021/11/25 07:49:04;;;;;;;69.30;42.70;;;128.10;2252.80;;;;;;5069227;28;20388;-76
2021/11/25 07:51:31;;;;;;;62.67;35.87;;;128.20;2252.80;;;;;;5070433;28;20103;-74
2021/11/25 07:53:57;;;;;;;55.53;32.47;;;128.30;2252.80;;;;;;5060319;28;20036;-75
2021/11/25 07:56:24;;;;;;;56.67;33.70;;;128.30;2252.80;;;;;;5070931;28;20036;-75
2021/11/25 07:58:51;;;;;;;58.73;34.80;;;128.30;2252.80;;;;;;5073018;28;20020;-76
2021/11/25 08:01:17;;;;;;;68.90;43.00;;;128.40;2252.80;;;;;;5070469;28;20074;-76
2021/11/25 08:03:43;;;;;;;60.10;33.10;;;128.50;2252.80;;;;;;5064393;28;20052;-76
2021/11/25 08:06:09;;;;;;;64.57;35.77;;;128.60;2252.80;;;;;;5069983;28;20039;-76
2021/11/25 08:08:34;;;;;;;54.17;31.37;;;128.70;2252.80;;;;;;5072872;28;20052;-76
2021/11/25 08:11:02;;;;;;;57.17;34.63;;;128.80;2252.80;;;;;;5072095;28;20533;-75
2021/11/25 08:13:30;;;;;;;54.03;31.93;;;128.90;2252.80;;;;;;5065770;28;20119;-76
2021/11/25 08:15:56;;;;;;;65.17;35.80;;;153.70;2252.80;;;;;;5065443;28;20086;-76
2021/11/25 08:18:22;;;;;;;67.37;40.47;;;153.90;2252.80;;;;;;5062582;28;20476;-76
2021/11/25 08:20:48;;;;;;;65.50;33.90;;;154.20;2252.80;;;;;;5070641;28;20475;-75
2021/11/25 08:23:14;;;;;;;54.65;32.67;;;154.30;2252.80;;;;;;5073032;28;20020;-77
2021/11/25 08:25:40;;;;;;;53.30;29.23;;;154.50;2252.80;;;;;;5072872;28;20024;-76
2021/11/25 08:28:07;;;;;;;50.85;29.63;;;179.30;2252.80;;;;;;5065737;28;20028;-76
2021/11/25 08:30:32;;;;;;;56.17;31.23;;;179.50;2252.80;;;;;;5072642;28;20062;-76
2021/11/25 08:32:58;;;;;;;48.40;28.75;;;179.80;2252.80;;;;;;5064695;28;20040;-77
2021/11/25 08:35:25;;;;;;;55.55;30.35;;;180.00;2252.80;;;;;;5066019;28;20036;-76
2021/11/25 08:37:51;;;;;;;48.03;30.10;;;204.90;2252.80;;;;;;5069558;28;20089;-77
2021/11/25 08:40:17;;;;;;;50.70;28.02;;;205.10;2252.80;;;;;;5068005;28;20025;-77
2021/11/25 08:42:45;;;;;;;47.92;29.42;;;205.40;2252.80;;;;;;5070180;28;20016;-78
2021/11/25 08:45:12;;;;;;;53.53;31.77;;;205.70;2252.80;;;;;;5064414;28;20095;-76
2021/11/25 08:47:38;;;;;;;45.67;29.58;;;230.70;2252.80;;;;;;5057350;28;20050;-77
2021/11/25 08:50:06;;;;;;;45.75;29.13;;;231.00;2150.40;;;;;;5068546;28;20107;-75
2021/11/25 08:52:32;;;;;;;39.45;24.00;;;256.00;2099.20;;;;;;5066869;28;20427;-77
2021/11/25 08:54:58;;;;;;;43.97;26.30;;;256.80;2022.40;;;;;;5064436;28;20020;-76
2021/11/25 08:57:23;;;;;;;44.50;24.73;;;282.20;1945.60;;;;;;5072714;28;20370;-78
2021/11/25 08:59:49;;;;;;;48.58;26.85;;;307.70;1894.40;;;;;;5070741;28;20025;-76
2021/11/25 09:02:15;;;;;;;37.05;26.05;;;333.30;1817.60;;;;;;5073661;28;20035;-77
2021/11/25 09:04:41;;;;;;;39.25;25.90;;;358.60;1715.20;;;;;;5064060;28;20542;-78
2021/11/25 09:07:06;;;;;;;42.75;25.75;;;384.00;1664.00;;;;;;5062153;28;20031;-78
2021/11/25 09:09:32;;;;;;;40.72;27.27;;;409.70;1587.20;;;;;;5061557;28;20029;-79
2021/11/25 09:11:58;;;;;;;49.97;30.48;;;410.30;1510.40;;;;;;5062881;28;20492;-78
2021/11/25 09:14:24;;;;;;;43.63;28.75;;;435.40;1433.60;;;;;;5065570;28;20116;-77
2021/11/25 09:16:50;;;;;;;42.15;28.92;;;436.10;1408.00;;;;;;5062412;28;20111;-79
2021/11/25 09:19:16;;;;;;;41.92;29.05;;;461.40;1382.40;;;;;;5059703;28;20481;-79
2021/11/25 09:21:42;;;;;;;40.50;27.38;;;486.70;1356.80;;;;;;5060264;28;20072;-80
2021/11/25 09:24:09;;;;;;;39.65;25.88;;;487.20;1305.60;;;;;;5058307;28;20044;-82
2021/11/25 09:26:37;;;;;;;41.30;26.15;;;487.30;1280.00;;;;;;5065924;28;20024;-78
2021/11/25 09:29:05;;;;;;;41.90;30.25;;;512.40;1280.00;;;;;;5076898;28;20049;-78
2021/11/25 09:31:32;;;;;;;52.58;34.60;;;537.60;1254.40;;;;;;5077050;28;20101;-78
2021/11/25 09:34:00;;;;;;;47.38;33.20;;;537.90;1228.80;;;;;;5077601;28;20431;-77
2021/11/25 09:36:29;;;;;;;43.90;30.30;;;538.30;1228.80;;;;;;5076675;28;20020;-77
2021/11/25 09:38:55;;;;;;;37.17;25.13;;;563.30;1203.20;;;;;;5074139;28;20485;-78
2021/11/25 09:41:21;;;;;;;39.72;25.52;;;563.70;1203.20;;;;;;5075175;28;20033;-78
2021/11/25 09:43:49;;;;;;;40.83;26.65;;;563.90;1152.00;;;;;;5076370;28;20040;-78
2021/11/25 09:46:15;;;;;;;37.80;27.00;;;564.00;1152.00;;;;;;5076338;28;20029;-78
2021/11/25 09:48:41;;;;;;;43.88;28.90;;;563.90;1152.00;;;;;;5075001;28;20032;-79
2021/11/25 09:51:09;;;;;;;41.20;27.70;;;563.80;1152.00;;;;;;5075001;28;20039;-78
2021/11/25 09:53:37;;;;;;;36.85;27.38;;;563.70;1152.00;;;;;;5076153;28;20098;-79
2021/11/25 09:56:04;;;;;;;36.47;26.63;;;563.50;1177.60;;;;;;5074716;28;20488;-78
2021/11/25 09:58:31;;;;;;;48.25;35.10;;;563.20;1203.20;;;;;;5067457;28;20116;-79
2021/11/25 10:01:03;;;;;;;43.60;30.67;;;538.40;1152.00;;;;;;5074146;28;20024;-79
2021/11/25 10:03:30;;;;;;;41.10;30.70;;;538.00;1177.60;;;;;;5074146;28;20024;-79
2021/11/25 10:05:58;;;;;;;39.47;27.10;;;537.80;1228.80;;;;;;5074106;28;20161;-79
2021/11/25 10:08:23;;;;;;;34.47;23.77;;;537.70;1228.80;;;;;;5075793;28;20540;-79
2021/11/25 10:11:09;;;;;;;40.22;26.80;;;512.90;1203.20;;;;;;5074268;28;20173;-78
2021/11/25 10:13:39;;;;;;;35.25;24.10;;;512.70;1177.60;;;;;;5073741;28;20044;-80
2021/11/25 10:16:11;;;;;;;43.10;30.63;;;512.50;1203.20;;;;;;5074338;28;20047;-80
2021/11/25 10:18:38;;;;;;;52.17;33.00;;;512.30;1228.80;;;;;;5075268;28;20013;-79
2021/11/25 10:21:16;;;;;;;39.35;27.38;;;512.10;1254.40;;;;;;5074114;28;20032;-80
2021/11/25 10:23:45;;;;;;;36.92;25.48;;;487.30;1228.80;;;;;;5071560;28;20067;-79
2021/11/25 10:26:16;;;;;;;39.50;25.95;;;487.30;1254.40;;;;;;5075162;28;20392;-80
2021/11/25 10:28:44;;;;;;;33.95;22.45;;;487.10;1254.40;;;;;;5075242;28;20381;-79
2021/11/25 10:31:12;;;;;;;36.15;25.20;;;486.90;1280.00;;;;;;5075389;28;20024;-80
2021/11/25 10:34:00;;;;;;;43.60;27.45;;;486.90;1305.60;;;;;;5073400;28;20029;-80
2021/11/25 10:36:31;;;;;;;42.33;26.40;;;486.70;1331.20;;;;;;5074078;28;20020;-80
2021/11/25 10:39:11;;;;;;;34.00;23.00;;;486.50;1356.80;;;;;;5073582;28;20021;-81
2021/11/25 10:41:40;;;;;;;39.47;25.75;;;461.70;1331.20;;;;;;5073714;28;20032;-82
2021/11/25 10:44:16;;;;;;;34.80;21.95;;;461.50;1305.60;;;;;;5074293;28;20029;-82
2021/11/25 10:46:55;;;;;;;37.05;22.88;;;461.30;1356.80;;;;;;5075045;28;20020;-82
2021/11/25 10:49:39;;;;;;;32.97;22.70;;;461.50;1408.00;;;;;;5073473;28;20086;-81
2021/11/25 10:52:16;;;;;;;38.22;22.95;;;461.70;1382.40;;;;;;5073192;28;20021;-81
2021/11/25 10:54:48;;;;;;;36.85;24.25;;;486.50;1382.40;;;;;;5073422;28;20025;-82
2021/11/25 10:57:15;;;;;;;36.30;25.20;;;486.50;1331.20;;;;;;5073707;28;20044;-82
2021/11/25 10:59:43;;;;;;;33.55;25.92;;;461.70;1331.20;;;;;;5073312;28;20103;-81
2021/11/25 11:02:21;;;;;;;34.97;23.20;;;461.70;1356.80;;;;;;5073358;28;20024;-82
2021/11/25 11:04:48;;;;;;;33.25;21.60;;;461.40;1356.80;;;;;;5074576;28;20082;-82
2021/11/25 11:07:35;;;;;;;35.40;22.95;;;461.30;1382.40;;;;;;5074643;28;20049;-81
2021/11/25 11:10:23;;;;;;;43.80;28.98;;;461.30;1382.40;;;;;;5073884;28;20028;-81
2021/11/25 11:13:13;;;;;;;41.20;25.98;;;460.80;1382.40;;;;;;5078473;28;20031;-81
2021/11/25 11:18:57;;;;;;;46.60;29.33;;;410.40;1459.20;;;;;;5074511;28;20504;-80
2021/11/25 11:21:41;;;;;;;46.40;27.65;;;409.80;1484.80;;;;;;5075200;28;20070;-80
2021/11/25 11:24:09;;;;;;;40.17;26.73;;;384.90;1510.40;;;;;;5073839;28;20032;-80
2021/11/25 11:26:42;;;;;;;47.58;27.10;;;384.80;1536.00;;;;;;5073123;28;20100;-80
2021/11/25 11:29:10;;;;;;;46.33;28.88;;;384.70;1561.60;;;;;;5074521;28;20036;-80
2021/11/25 11:31:37;;;;;;;47.05;27.42;;;384.50;1536.00;;;;;;5072518;28;20040;-80
2021/11/25 11:34:05;;;;;;;42.92;27.50;;;384.40;1587.20;;;;;;5078146;28;20020;-79
2021/11/25 11:36:32;;;;;;;46.13;29.30;;;384.20;1587.20;;;;;;5073067;28;20035;-79
2021/11/25 11:38:59;;;;;;;43.97;28.13;;;384.10;1612.80;;;;;;5073161;28;20027;-79
2021/11/25 11:41:30;;;;;;;43.67;27.70;;;359.30;1612.80;;;;;;5073588;28;20438;-79
2021/11/25 11:43:57;;;;;;;45.75;26.35;;;359.30;1612.80;;;;;;5073358;28;20024;-79
2021/11/25 11:46:24;;;;;;;41.97;25.52;;;359.10;1612.80;;;;;;5073428;28;20548;-79
2021/11/25 11:48:52;;;;;;;37.08;23.33;;;359.10;1638.40;;;;;;5074020;28;20040;-78
2021/11/25 11:51:21;;;;;;;27.40;18.30;;;359.10;1664.00;;;;;;5073671;28;20049;-79
2021/11/25 11:53:51;;;;;;;30.38;18.35;;;359.00;1612.80;;;;;;5072405;28;20028;-80
2021/11/25 11:56:17;;;;;;;35.25;19.85;;;358.90;1612.80;;;;;;5073979;28;20155;-79
2021/11/25 11:58:58;;;;;;;32.67;20.38;;;358.80;1638.40;;;;;;5072134;28;20024;-79
2021/11/25 12:01:28;;;;;;;34.67;21.65;;;358.70;1664.00;;;;;;5072222;28;20028;-80
2021/11/25 12:03:56;;;;;;;36.40;20.02;;;358.70;1689.60;;;;;;5071993;28;20448;-79
2021/11/25 12:06:40;;;;;;;36.50;19.92;;;358.70;1689.60;;;;;;5074705;28;20474;-81
2021/11/25 12:09:26;;;;;;;30.50;18.27;;;358.80;1689.60;;;;;;5073666;28;20032;-79
2021/11/25 12:12:04;;;;;;;27.20;16.70;;;358.90;1689.60;;;;;;5055110;28;20036;-79